• Join FlightAware (Why Join?)
  • Login
  • US Flag 
07:16AM EDT


 

Airport Tracker/Info


-or-


 

Live Flight TrackerFlight Track Log ✈ N552XJ ✈ 17-Jun-2013 ✈ KTEB - KSJC

Flight Track Log - Related Links

Times and Time Zones

All times are in EDT time to prevent confusion due to time zone crossing. See the N552XJ flight status page for this flight to view local times or setup timezone preferences in your user account.

Time Position Orientation Groundspeed Altitude Reporting Facility
EDT Latitude Longitude Course Direction KTS MPH feet Rate Location/Type
06:33PM 40.8167 -74.1500 323° Northwest 210 242 1,600  Level New York TRACON
06:34PM 40.8167 -74.2167 270° West 220 253 4,900 3,540 Climbing New York TRACON
06:35PM 40.8333 -74.3000 285° West 235 270 8,700 3,360 Climbing New York TRACON
06:37PM 40.9367 -74.3475 341° North 280 322 13,500 1,980 Climbing New York Center
06:39PM 41.1677 -74.8010 323° Northwest  Level FlightAware Approximate
06:39PM 41.0410 -74.5116 299° West  Level FlightAware Approximate
06:39PM 41.0372 -74.5261 299° West 305 351 16,000  Level New York Center
06:40PM 41.0947 -74.6228 308° West 332 382 15,900 180 Descending New York Center
06:41PM 41.1419 -74.7053 307° West 332 382 16,400 1,380 Climbing New York Center
06:42PM 41.1825 -74.8014 299° West 327 376 18,700 2,640 Climbing New York Center
06:43PM 41.2344 -74.9203 300° West 333 383 21,900 3,000 Climbing New York Center
06:44PM 41.2806 -75.0281 300° West 339 390 24,800 2,580 Climbing New York Center
06:45PM 41.3267 -75.1361 300° West 339 390 27,100 1,860 Climbing New York Center
06:46PM 41.3767 -75.2472 301° West 344 396 28,500 1,500 Climbing New York Center
06:47PM 41.4283 -75.3667 300° West 356 410 30,100 1,560 Climbing New York Center
06:48PM 41.4778 -75.4892 298° West 368 423 31,700 1,560 Climbing New York Center
06:49PM 41.5161 -75.6194 291° West 373 429 33,300 1,560 Climbing New York Center
06:50PM 41.5525 -75.7467 291° West 373 429 34,900 1,980 Climbing New York Center
06:51PM 41.5869 -75.8686 291° West 361 415 37,300 1,500 Climbing New York Center
06:52PM 41.6194 -75.9847 291° West 347 399 38,000 300 Climbing New York Center
06:53PM 41.6517 -76.1011 290° West 341 392 38,000  Level New York Center
06:54PM 41.6881 -76.2181 293° West 336 387 38,000  Level New York Center
06:55PM 41.7200 -76.3372 290° West 336 387 38,000 540 Level New York Center
06:57PM 41.7767 -76.5536 289° West 334 384 39,500 720 Climbing Cleveland Center
06:58PM 41.8078 -76.6661 290° West 323 372 40,000 480 Climbing Cleveland Center
06:59PM 41.8408 -76.7839 291° West 323 372 40,500 360 Climbing Cleveland Center
07:00PM 41.8739 -76.9047 290° West 333 383 40,800 240 Climbing Cleveland Center
07:01PM 41.9092 -77.0283 291° West 343 395 41,100 300 Climbing Cleveland Center
07:02PM 41.9444 -77.1575 290° West 361 415 41,400 300 Climbing Cleveland Center
07:03PM 41.9794 -77.2897 290° West 366 421 41,700 300 Climbing Cleveland Center
07:04PM 42.0144 -77.4222 290° West 371 427 42,000 300 Climbing Cleveland Center
07:05PM 42.0514 -77.5544 291° West 377 434 42,300 240 Climbing Cleveland Center
07:06PM 42.0842 -77.6928 288° West 377 434 42,600 240 Climbing Cleveland Center
07:07PM 42.1208 -77.8286 290° West 377 434 42,900 180 Climbing Cleveland Center
07:08PM 42.1575 -77.9642 290° West 377 434 43,000  Climbing Cleveland Center
07:09PM 42.1939 -78.1000 290° West 382 440 43,000  Level Cleveland Center
07:10PM 42.2300 -78.2417 289° West 382 440 43,000  Level Cleveland Center
07:11PM 42.2661 -78.3778 290° West 387 445 43,000  Level Cleveland Center
07:12PM 42.3019 -78.5169 289° West 387 445 43,000  Level Cleveland Center
07:13PM 42.3358 -78.6592 288° West 387 445 43,000  Level Cleveland Center
07:14PM 42.3733 -78.7956 290° West 392 451 43,000  Level Cleveland Center
07:15PM 42.4044 -78.9214 289° West 397 457 43,000  Level Cleveland Center
07:16PM 42.4378 -79.0639 288° West 397 457 43,000  Level Cleveland Center
07:17PM 42.4772 -79.2178 289° West 402 463 43,000  Level Cleveland Center
07:18PM 42.5119 -79.3581 289° West 402 463 43,000  Level Cleveland Center
07:19PM 42.5050 -79.4933 266° West 397 457 43,000  Level Cleveland Center
07:20PM 42.5106 -79.6425 273° West 397 457 43,000  Level Cleveland Center
07:21PM 42.5158 -79.7861 273° West 397 457 43,000  Level Cleveland Center
07:22PM 42.5250 -79.9353 275° West 397 457 43,000  Level Cleveland Center
07:23PM 42.5300 -80.0958 272° West 397 457 43,000  Level Cleveland Center
07:24PM 42.5347 -80.2422 273° West 397 457 43,000  Level Cleveland Center
07:25PM 42.5414 -80.3831 274° West 397 457 43,000  Level Cleveland Center
07:26PM 42.5478 -80.5325 273° West 389 448 43,000  Level Cleveland Center
07:27PM 42.5539 -80.6650 274° West 389 448 43,100  Climbing Cleveland Center
07:28PM 42.5581 -80.8144 272° West 389 448 43,000 -60 Descending Cleveland Center
07:29PM 42.5639 -80.9553 273° West 384 442 43,000  Level Cleveland Center
07:30PM 42.5694 -81.0992 273° West 378 435 43,000  Level Cleveland Center
07:31PM 42.5731 -81.2317 272° West 371 427 43,000  Level Cleveland Center
07:32PM 42.5783 -81.3728 273° West 366 421 43,000  Level Cleveland Center
07:33PM 42.5942 -81.5053 279° West 366 421 43,000  Level Cleveland Center
07:34PM 42.6200 -81.6469 284° West 376 433 43,000  Level Cleveland Center
07:35PM 42.6394 -81.7856 281° West 376 433 43,000  Level Cleveland Center
07:37PM 42.6903 -82.0717 284° West 381 438 43,000  Level Cleveland Center
07:38PM 42.7156 -82.2136 284° West 381 438 43,000  Level Cleveland Center
07:39PM 42.7403 -82.3614 283° West 393 452 43,000  Level Cleveland Center
07:40PM 42.7653 -82.5033 284° West 393 452 43,000  Level Cleveland Center
07:41PM 42.7897 -82.6486 283° West 393 452 43,000  Level Cleveland Center
07:42PM 42.8142 -82.7936 283° West 393 452 43,000  Level Cleveland Center
07:43PM 42.8364 -82.9333 282° West 393 452 43,000  Level Cleveland Center
07:44PM 42.8583 -83.0728 282° West 393 452 43,000  Level Cleveland Center
07:45PM 42.8825 -83.2125 283° West 388 447 43,000  Level Cleveland Center
07:46PM 42.9042 -83.3525 282° West 379 436 43,000  Level Cleveland Center
07:47PM 42.9256 -83.4953 282° West 379 436 43,000  Level Cleveland Center
07:48PM 42.9492 -83.6411 283° West 379 436 43,000  Level Cleveland Center
07:49PM 42.9719 -83.7925 282° West 393 452 43,000  Level Cleveland Center
07:50PM 42.9844 -83.9436 277° West 406 467 43,000  Level Cleveland Center
07:51PM 43.0028 -84.0981 279° West 411 473 43,000  Level Cleveland Center
07:51PM 43.0094 -84.1628 278° West 413 475 43,000  Level Chicago Center
07:52PM 43.0253 -84.3186 278° West 416 479 43,000  Level Chicago Center
07:53PM 43.0406 -84.4722 278° West 412 474 43,000  Level Chicago Center
07:54PM 43.0553 -84.6281 277° West 414 476 43,000  Level Chicago Center
07:55PM 43.0694 -84.7814 277° West 410 472 43,000  Level Chicago Center
07:56PM 43.0836 -84.9333 277° West 406 467 43,000  Level Chicago Center
07:57PM 43.1003 -85.1147 277° West 404 465 43,000  Level Chicago Center
07:58PM 43.1133 -85.2647 277° West 401 461 43,000  Level Chicago Center
07:59PM 43.1272 -85.4144 277° West 398 458 43,000  Level Chicago Center
08:00PM 43.1406 -85.5636 277° West 399 459 43,000  Level Chicago Center
08:01PM 43.1525 -85.7128 276° West 398 458 43,000  Level Chicago Center
08:02PM 43.1686 -85.8897 277° West 398 458 43,000  Level Chicago Center
08:03PM 43.1817 -86.0369 277° West 401 461 43,000  Level Chicago Center
08:04PM 43.1931 -86.1867 276° West 403 464 43,000  Level Chicago Center
08:06PM 43.1967 -86.3339 272° West 392 451 43,000  Level Chicago Center
08:07PM 43.1903 -86.5158 267° West 399 459 43,000  Level Chicago Center
08:08PM 43.1858 -86.6675 268° West 398 458 43,000  Level Chicago Center
08:09PM 43.1800 -86.8200 267° West 401 461 43,000  Level Chicago Center
08:10PM 43.1750 -86.9714 267° West 400 460 43,000  Level Chicago Center
08:11PM 43.1683 -87.1244 267° West 404 465 43,000 240 Level Chicago Center
08:12PM 43.1617 -87.3056 267° West 398 458 43,600 480 Climbing Chicago Center
08:13PM 43.1558 -87.4439 267° West 391 450 44,100 360 Climbing Chicago Center
08:14PM 43.1522 -87.5933 268° West 391 450 44,400 300 Climbing Chicago Center
08:15PM 43.1458 -87.7683 267° West 392 451 44,800 240 Climbing Chicago Center
08:16PM 43.1411 -87.9144 268° West 387 445 45,000 60 Climbing Chicago Center
08:17PM 43.1358 -88.0669 267° West 393 452 45,000  Level Chicago Center
08:18PM 43.1300 -88.2175 267° West 392 451 45,000  Level Chicago Center
08:19PM 43.1242 -88.3694 267° West 395 455 45,000  Level Chicago Center
08:20PM 43.1164 -88.5272 266° West 409 471 45,000  Level Chicago Center
08:21PM 43.1114 -88.6847 268° West 411 473 45,000  Level Chicago Center
08:22PM 43.1047 -88.8689 267° West 412 474 45,000  Level Chicago Center
08:23PM 43.0981 -89.0261 267° West 412 474 45,000  Level Chicago Center
08:24PM 43.0908 -89.1825 266° West 410 472 45,000  Level Chicago Center
08:25PM 43.0839 -89.3386 267° West 412 474 45,000  Level Chicago Center
08:26PM 43.0761 -89.4942 266° West 411 473 45,000  Level Chicago Center
08:27PM 43.0681 -89.6769 267° West 410 472 45,000  Level Chicago Center
08:28PM 43.0603 -89.8336 266° West 413 475 45,000  Level Chicago Center
08:29PM 43.0511 -89.9939 266° West 411 473 45,000  Level Chicago Center
08:30PM 43.0433 -90.1475 266° West 410 472 45,000  Level Chicago Center
08:31PM 43.0347 -90.3028 266° West 413 475 45,000  Level Chicago Center
08:32PM 43.0294 -90.4575 267° West 413 475 45,000  Level Chicago Center
08:33PM 43.0197 -90.6117 265° West 412 474 45,000  Level Chicago Center
08:34PM 43.0069 -90.7969 265° West 413 475 45,000  Level Chicago Center
08:36PM 42.9986 -90.9536 266° West 416 479 45,000  Level Chicago Center
08:37PM 42.9897 -91.1092 266° West 418 481 45,000  Level Chicago Center
08:38PM 42.9806 -91.2647 265° West 417 480 45,000  Level Chicago Center
08:39PM 42.9694 -91.4503 265° West 417 480 45,000  Level Chicago Center
08:40PM 42.9611 -91.6039 266° West 419 482 45,000  Level Minneapolis Center
08:41PM 42.9481 -91.7586 263° West 418 481 45,000  Level Chicago Center
08:42PM 42.9364 -91.9128 264° West 418 481 45,000  Level Chicago Center
08:43PM 42.9239 -92.0986 265° West 418 481 45,000  Level Minneapolis Center
08:44PM 42.9117 -92.2550 264° West 419 482 45,000  Level Minneapolis Center
08:45PM 42.9011 -92.4114 265° West 419 482 45,000  Level Minneapolis Center
08:46PM 42.8867 -92.5992 264° West 420 483 45,000  Level Minneapolis Center
08:47PM 42.8747 -92.7553 264° West 423 487 45,000  Level Chicago Center
08:48PM 42.8633 -92.9142 264° West 426 490 45,000  Level Chicago Center
08:49PM 42.8500 -93.0728 264° West 426 490 45,000  Level Chicago Center
08:50PM 42.8386 -93.2306 264° West 425 489 45,000  Level Chicago Center
08:51PM 42.8228 -93.4225 264° West 428 493 45,000  Level Minneapolis Center
08:52PM 42.8103 -93.5806 264° West 424 488 45,000  Level Minneapolis Center
08:53PM 42.7972 -93.7417 264° West 430 495 45,000  Level Minneapolis Center
08:54PM 42.7836 -93.9017 263° West 431 496 45,000  Level Minneapolis Center
08:55PM 42.7697 -94.0619 263° West 430 495 45,000  Level Minneapolis Center
08:56PM 42.7539 -94.2531 264° West 429 494 45,000  Level Minneapolis Center
08:57PM 42.7386 -94.4128 263° West 429 494 45,000  Level Minneapolis Center
08:58PM 42.7239 -94.5742 263° West 434 499 45,000  Level Minneapolis Center
08:59PM 42.7069 -94.7522 263° West 430 495 45,000  Level Minneapolis Center
09:00PM 42.6917 -94.9144 263° West 433 498 45,000  Level Minneapolis Center
09:01PM 42.6756 -95.0753 262° West 432 497 45,000  Level Minneapolis Center
09:02PM 42.6597 -95.2369 262° West 432 497 45,000  Level Minneapolis Center
09:03PM 42.6444 -95.3961 263° West 427 491 45,000  Level Minneapolis Center
09:05PM 42.6253 -95.5867 262° West 425 489 45,000  Level Minneapolis Center
09:06PM 42.6086 -95.7431 262° West 419 482 45,000  Level Minneapolis Center
09:07PM 42.5928 -95.9006 262° West 421 484 45,000  Level Minneapolis Center
09:08PM 42.5761 -96.0558 262° West 419 482 45,000  Level Minneapolis Center
09:09PM 42.5589 -96.2136 262° West 422 486 45,000  Level Minneapolis Center
09:10PM 42.5422 -96.3708 262° West 423 487 45,000  Level Minneapolis Center
09:11PM 42.5211 -96.5619 262° West 428 493 45,000  Level Minneapolis Center
09:12PM 42.5028 -96.7208 261° West 428 493 45,000  Level Minneapolis Center
09:13PM 42.4853 -96.8806 262° West 429 494 45,000  Level Minneapolis Center
09:14PM 42.4675 -97.0392 261° West 428 493 45,000  Level Minneapolis Center
09:15PM 42.4494 -97.1981 261° West 428 493 45,000  Level Minneapolis Center
09:16PM 42.4275 -97.3892 261° West 430 495 45,000  Level Minneapolis Center
09:17PM 42.4083 -97.5469 261° West 428 493 45,000  Level Minneapolis Center
09:18PM 42.3889 -97.7081 261° West 431 496 45,000  Level Minneapolis Center
09:19PM 42.3703 -97.8608 261° West 430 495 45,000  Level Minneapolis Center
09:20PM 42.3508 -98.0192 261° West 429 494 45,000  Level Minneapolis Center
09:21PM 42.3272 -98.2106 261° West 430 495 45,000  Level Minneapolis Center
09:22PM 42.3064 -98.3689 260° West 430 495 45,000  Level Minneapolis Center
09:23PM 42.2867 -98.5275 261° West 429 494 45,000  Level Minneapolis Center
09:24PM 42.2694 -98.6539 260° West 428 493 45,000  Level Denver Center
09:25PM 42.2492 -98.8125 260° West 429 494 45,000  Level Denver Center
09:26PM 42.2283 -98.9722 260° West 434 499 45,000  Level Denver Center
09:26PM 42.2164 -99.0664 260° West 430 495 45,000  Level Minneapolis Center
09:27PM 42.1947 -99.2242 260° West 429 494 45,000  Level Minneapolis Center
09:29PM 42.1736 -99.3817 260° West 428 493 45,000  Level Minneapolis Center
09:29PM 42.1603 -99.4753 259° West 427 491 45,000  Level Denver Center
09:31PM 42.1277 -99.6807 258° West  Level FlightAware Approximate
09:31PM 42.1144 -99.8036 258° West 427 491 45,000  Level Denver Center
09:32PM 42.0942 -99.9528 260° West 425 489 45,000  Level Denver Center
09:33PM 42.0689 -100.1275 259° West 427 491 45,000  Level Denver Center
09:34PM 42.0469 -100.2772 259° West 427 491 45,000  Level Denver Center
09:35PM 42.0214 -100.4503 259° West 425 489 45,000  Level Denver Center
09:36PM 42.0000 -100.6014 259° West 430 495 45,000  Level Denver Center
09:37PM 41.9739 -100.7767 259° West 430 495 45,000  Level Denver Center
09:38PM 41.9517 -100.9278 259° West 431 496 45,000  Level Denver Center
09:39PM 41.9294 -101.0794 259° West 434 499 45,000  Level Denver Center
09:40PM 41.9017 -101.2561 258° West 434 499 45,000  Level Denver Center
09:41PM 41.8792 -101.4061 259° West 431 496 45,000  Level Denver Center
09:43PM 41.8511 -101.5794 258° West 428 493 45,000  Level Denver Center
09:44PM 41.8278 -101.7286 258° West 428 493 45,000  Level Denver Center
09:45PM 41.7994 -101.9014 258° West 427 491 45,000  Level Denver Center
09:46PM 41.7769 -102.0511 259° West 430 495 45,000  Level Denver Center
09:47PM 41.7472 -102.2258 257° West 432 497 45,000  Level Denver Center
09:48PM 41.7231 -102.3744 258° West 430 495 45,000  Level Denver Center
09:49PM 41.6947 -102.5486 258° West 431 496 45,000  Level Denver Center
09:50PM 41.6686 -102.7047 257° West 429 494 45,000  Level Denver Center
09:51PM 41.6433 -102.8531 257° West 427 491 45,000  Level Denver Center
09:52PM 41.6136 -103.0239 257° West 423 487 45,000  Level Denver Center
09:53PM 41.5811 -103.2189 258° West 421 484 45,000  Level Denver Center
09:54PM 41.5556 -103.3625 257° West 418 481 45,000  Level Denver Center
09:55PM 41.5303 -103.5072 257° West 418 481 45,000  Level Denver Center
09:56PM 41.5011 -103.6750 257° West 417 480 45,000  Level Denver Center
09:57PM 41.4758 -103.8169 257° West 413 475 45,000  Level Denver Center
09:58PM 41.4450 -103.9864 256° West 419 482 45,000  Level Denver Center
09:59PM 41.4197 -104.1281 257° West 414 476 45,000  Level Denver Center
10:00PM 41.3839 -104.3211 256° West 420 483 45,000  Level Denver Center
10:02PM 41.3581 -104.4628 256° West 415 478 45,000  Level Denver Center
10:03PM 41.3314 -104.6089 256° West 420 483 45,000  Level Denver Center
10:04PM 41.2997 -104.7772 256° West 420 483 45,000  Level Denver Center
10:05PM 41.2675 -104.9511 256° West 429 494 45,000  Level Denver Center
10:06PM 41.2403 -105.0978 256° West 428 493 45,000  Level Denver Center
10:07PM 41.2075 -105.2719 256° West 432 497 45,000  Level Denver Center
10:08PM 41.1783 -105.4164 255° West 427 491 45,000  Level Denver Center
10:09PM 41.1453 -105.5875 256° West 428 493 45,000  Level Denver Center
10:10PM 41.1122 -105.7567 256° West 426 490 45,000  Level Denver Center
10:11PM 41.0794 -105.9231 255° West 419 482 45,000  Level Denver Center
10:12PM 41.0514 -106.0647 255° West 415 478 45,000  Level Denver Center
10:13PM 41.0169 -106.2275 254° West 414 476 45,000  Level Denver Center
10:14PM 40.9892 -106.3683 255° West 413 475 45,000  Level Denver Center
10:15PM 40.9556 -106.5328 255° West 416 479 45,000  Level Denver Center
10:16PM 40.9206 -106.6731 252° West 421 484 45,000  Level Denver Center
10:17PM 40.8861 -106.8161 252° West 425 489 45,000  Level Denver Center
10:18PM 40.8386 -107.0075 252° West 429 494 45,000  Level Denver Center
10:19PM 40.7953 -107.1753 251° West 433 498 45,000  Level Denver Center
10:21PM 40.7606 -107.3181 252° West 429 494 45,000  Level Denver Center
10:22PM 40.7172 -107.4875 251° West 432 497 45,000  Level Denver Center
10:23PM 40.6808 -107.6311 252° West 432 497 45,000  Level Denver Center
10:24PM 40.6444 -107.7736 251° West 431 496 45,000  Level Denver Center
10:25PM 40.6017 -107.9408 251° West 432 497 45,000  Level Denver Center
10:26PM 40.5653 -108.0825 251° West 429 494 45,000  Level Denver Center
10:27PM 40.5214 -108.2464 251° West 427 491 45,000  Level Denver Center
10:28PM 40.4839 -108.3869 251° West 428 493 45,000  Level Denver Center
10:29PM 40.4406 -108.5500 251° West 425 489 45,000  Level Denver Center
10:30PM 40.4033 -108.6894 251° West 425 489 45,000  Level Denver Center
10:31PM 40.3594 -108.8533 251° West 425 489 45,000  Level Denver Center
10:32PM 40.3231 -108.9925 251° West 424 488 45,000  Level Denver Center
10:33PM 40.2719 -109.1772 250° West 426 490 45,000  Level Denver Center
10:34PM 40.2347 -109.3144 250° West 423 487 45,000  Level Salt Lake Center
10:34PM 40.2347 -109.3144 250° West 421 484 45,000  Level Denver Center
10:35PM 40.1964 -109.4514 250° West 421 484 45,000  Level Salt Lake Center
10:36PM 40.1517 -109.6117 250° West 421 484 45,000  Level Salt Lake Center
10:37PM 40.1136 -109.7486 250° West 421 484 45,000  Level Salt Lake Center
10:38PM 40.0686 -109.9089 250° West 422 486 45,000  Level Salt Lake Center
10:39PM 40.0306 -110.0453 250° West 419 482 45,000  Level Salt Lake Center
10:40PM 39.9925 -110.1814 250° West 419 482 45,000  Level Salt Lake Center
10:41PM 39.9469 -110.3383 249° West 416 479 45,000  Level Salt Lake Center
10:42PM 39.9092 -110.4725 250° West 414 476 45,000  Level Salt Lake Center
10:43PM 39.8639 -110.6294 249° West 414 476 45,000  Level Salt Lake Center
10:44PM 39.8253 -110.7633 249° West 415 478 45,000  Level Salt Lake Center
10:45PM 39.7797 -110.9192 249° West 414 476 45,000  Level Salt Lake Center
10:46PM 39.7408 -111.0522 249° West 412 474 45,000  Level Salt Lake Center
10:47PM 39.6953 -111.2086 249° West 414 476 45,000  Level Salt Lake Center
10:48PM 39.6575 -111.3303 248° West 415 478 45,000  Level Salt Lake Center
10:49PM 39.6164 -111.4692 249° West 413 475 45,000  Level Salt Lake Center
10:50PM 39.5656 -111.6358 248° West 414 476 45,000  Level Salt Lake Center
10:51PM 39.5253 -111.7747 249° West 412 474 45,000  Level Salt Lake Center
10:53PM 39.4833 -111.9128 249° West 412 474 45,000  Level Salt Lake Center
10:54PM 39.4419 -112.0522 249° West 416 479 45,000  Level Salt Lake Center
10:55PM 39.3994 -112.1892 248° West 414 476 45,000  Level Salt Lake Center
10:56PM 39.3581 -112.3289 249° West 416 479 45,000  Level Salt Lake Center
10:57PM 39.3169 -112.4694 249° West 419 482 45,000  Level Salt Lake Center
10:58PM 39.2808 -112.6067 251° West 411 473 45,000  Level Salt Lake Center
10:59PM 39.2444 -112.7717 254° West 412 474 45,000  Level Salt Lake Center
11:00PM 39.2128 -112.9128 254° West 413 475 45,000  Level Salt Lake Center
11:01PM 39.1808 -113.0556 254° West 416 479 45,000  Level Salt Lake Center
11:02PM 39.1492 -113.1953 254° West 411 473 45,000  Level Salt Lake Center
11:03PM 39.1167 -113.3339 253° West 408 470 45,000  Level Salt Lake Center
11:04PM 39.0853 -113.4728 254° West 407 468 45,000  Level Salt Lake Center
11:05PM 39.0458 -113.6394 253° West 408 470 45,000  Level Salt Lake Center
11:06PM 39.0150 -113.7789 254° West 408 470 45,000  Level Salt Lake Center
11:07PM 38.9814 -113.9186 253° West 410 472 45,000  Level Salt Lake Center
11:08PM 38.9492 -114.0569 253° West 408 470 45,000  Level Salt Lake Center
11:09PM 38.9169 -114.1975 254° West 411 473 45,000  Level Salt Lake Center
11:10PM 38.8839 -114.3356 253° West 409 471 45,000  Level Salt Lake Center
11:11PM 38.8492 -114.4744 252° West 411 473 45,000  Level Salt Lake Center
11:12PM 38.8106 -114.6411 253° West 409 471 45,000  Level Salt Lake Center
11:13PM 38.7761 -114.7803 252° West 411 473 45,000  Level Salt Lake Center
11:14PM 38.7425 -114.9178 253° West 406 467 45,000  Level Salt Lake Center
11:15PM 38.7078 -115.0572 252° West 410 472 45,000  Level Salt Lake Center
11:16PM 38.6717 -115.1964 252° West 413 475 45,000  Level Salt Lake Center
11:17PM 38.6378 -115.3342 253° West 410 472 45,000  Level Salt Lake Center
11:18PM 38.6006 -115.4883 253° West 406 467 45,000  Level Salt Lake Center
11:19PM 38.5667 -115.6264 253° West 406 467 45,000  Level Salt Lake Center
11:20PM 38.5314 -115.7631 252° West 406 467 45,000  Level Salt Lake Center
11:21PM 38.4967 -115.9003 252° West 407 468 45,000  Level Salt Lake Center
11:22PM 38.4619 -116.0375 252° West 407 468 45,000  Level Salt Lake Center
11:23PM 38.4344 -116.1469 252° West 408 470 45,000  Level Oakland Center
11:24PM 38.3911 -116.3111 251° West 408 470 45,000  Level Oakland Center
11:25PM 38.3558 -116.4481 252° West 407 468 45,000  Level Oakland Center
11:26PM 38.3194 -116.5847 251° West 406 467 45,000  Level Oakland Center
11:27PM 38.2839 -116.7200 252° West 404 465 45,000  Level Oakland Center
11:28PM 38.2403 -116.8494 247° West 399 459 45,000  Level Oakland Center
11:29PM 38.1875 -116.9736 242° Southwest 399 459 45,000  Level Oakland Center
11:30PM 38.1319 -117.1033 241° Southwest 399 459 45,000  Level Oakland Center
11:31PM 38.0739 -117.2342 241° Southwest 413 475 45,000  Level Oakland Center
11:32PM 38.0208 -117.3594 242° Southwest 401 461 45,000  Level Oakland Center
11:33PM 37.9678 -117.4817 241° Southwest 396 456 45,000 -300 Level Oakland Center
11:34PM 37.9156 -117.6022 241° Southwest 392 451 44,400 -900 Descending Oakland Center
11:35PM 37.8642 -117.7197 241° Southwest 383 441 43,200 -1,200 Descending Oakland Center
11:36PM 37.8097 -117.8414 241° Southwest 394 453 42,000 -1,200 Descending Oakland Center
11:37PM 37.7558 -117.9622 241° Southwest 394 453 40,800 -1,200 Descending Oakland Center
11:38PM 37.7039 -118.0839 242° Southwest 393 452 39,600 -1,200 Descending Oakland Center
11:39PM 37.6497 -118.2031 240° Southwest 392 451 38,400 -1,200 Descending Oakland Center
11:40PM 37.5958 -118.3250 241° Southwest 396 456 37,200 -1,200 Descending Oakland Center
11:41PM 37.5411 -118.4467 240° Southwest 398 458 36,000 -1,380 Descending Oakland Center
11:42PM 37.4747 -118.5964 241° Southwest 410 472 34,500 -1,020 Descending Oakland Center
11:43PM 37.4175 -118.7222 240° Southwest 414 476 34,000 -300 Descending Oakland Center
11:45PM 37.3817 -118.8617 252° West 416 479 34,000  Level Oakland Center
11:46PM 37.3675 -119.0053 263° West 414 476 34,000  Level Oakland Center
11:47PM 37.3531 -119.1453 263° West 408 470 34,000 -480 Level Oakland Center
11:48PM 37.3383 -119.2858 263° West 408 470 33,100 -1,800 Descending Oakland Center
11:49PM 37.3242 -119.4314 263° West 419 482 30,400 -2,700 Descending Oakland Center
11:50PM 37.3075 -119.5800 262° West 430 495 27,700 -2,580 Descending Oakland Center
11:51PM 37.2931 -119.7233 263° West 417 480 25,200 -1,860 Descending Oakland Center
11:52PM 37.2786 -119.8606 263° West 409 471 24,000 -600 Descending Oakland Center
11:53PM 37.2639 -120.0033 263° West 410 472 24,000 -120 Level Oakland Center
11:54PM 37.2481 -120.1483 262° West 417 480 23,800 -1,380 Descending Oakland Center
11:55PM 37.2294 -120.3139 262° West 402 463 21,300 -2,340 Descending Oakland Center
11:55PM 37.2167 -120.3833 257° West 392 451 20,100 -2,340 Descending Northern Cal TRACON
11:56PM 37.2000 -120.5167 261° West 442 509 17,700 -2,820 Descending Northern Cal TRACON
11:57PM 37.1667 -120.6500 253° West 359 413 14,500 -2,940 Descending Northern Cal TRACON
11:58PM 37.1500 -120.7500 258° West 360 414 12,200 -2,400 Descending Northern Cal TRACON
11:59PM 37.1167 -120.8667 250° West 347 399 10,000 -1,440 Descending Northern Cal TRACON
12:00AM 37.1056 -120.9286 257° West 330 380 9,900  Descending Oakland Center
12:01AM 37.0806 -121.0433 255° West 338 389 10,000  Climbing Oakland Center
12:02AM 37.0589 -121.1544 256° West 351 404 9,900 -60 Descending Oakland Center
12:03AM 37.0825 -121.2653 285° West 333 383 9,900 -600 Level Oakland Center
12:04AM 37.1006 -121.3703 282° West 290 334 8,700 -1,380 Descending Oakland Center
12:05AM 37.1189 -121.4617 284° West 274 315 7,200 -1,500 Descending Oakland Center
12:06AM 37.1350 -121.5539 282° West 270 311 5,700 -1,140 Descending Oakland Center
12:07AM 37.1492 -121.6469 281° West 250 288 4,900 -420 Descending Oakland Center
12:08AM 37.1703 -121.7253 289° West 238 274 4,900 -540 Level Oakland Center
12:09AM 37.2203 -121.7736 322° Northwest 225 259 3,900 -1,260 Descending Oakland Center
12:10AM 37.2581 -121.8169 318° Northwest 197 227 2,400 -1,080 Descending Oakland Center
12:11AM 37.2922 -121.8528 320° Northwest 180 207 1,800 -780 Descending Oakland Center
12:12AM 37.3200 -121.8864 316° Northwest 159 183 900 -780 Descending Oakland Center
12:13AM 37.3444 -121.9125 320° Northwest 136 157 300 -600 Descending Oakland Center
12:15AM 37.3500 -121.9167 North  Level FlightAware Approximate
12:22AM 37.3627 -121.9291 North  Level Estimated